Time;durP1;ratioP1;P1;durP2;ratioP2;P2;SDS_P1;SDS_P2;PMS_P1;PMS_P2;Temp;Humidity;BMP_temperature;BMP_pressure;BME280_temperature;BME280_humidity;BME280_pressure;Samples;Min_cycle;Max_cycle;Signal;HPM_P1;HPM_P2
2022/01/14 00:00:37;;;;;;;18.70;9.82;;;2.50;90.10;;;;;;5057514;28;20112;-31
2022/01/14 00:03:03;;;;;;;17.48;8.63;;;2.60;90.10;;;;;;5057536;28;20025;-39
2022/01/14 00:05:29;;;;;;;20.42;9.88;;;2.60;90.00;;;;;;5057565;28;20033;-38
2022/01/14 00:07:54;;;;;;;16.55;9.05;;;2.60;90.00;;;;;;5057560;28;20029;-31
2022/01/14 00:10:20;;;;;;;15.30;8.52;;;2.60;90.00;;;;;;5057310;28;20393;-32
2022/01/14 00:12:52;;;;;;;15.18;9.18;;;2.70;90.00;;;;;;5057617;28;20060;-39
2022/01/14 00:15:24;;;;;;;14.35;9.07;;;2.70;90.10;;;;;;5057442;28;20037;-34
2022/01/14 00:17:51;;;;;;;18.60;8.77;;;2.70;90.10;;;;;;5056835;28;20041;-39
2022/01/14 00:20:18;;;;;;;14.77;8.10;;;2.70;90.10;;;;;;5055961;28;20147;-33
2022/01/14 00:22:44;;;;;;;14.38;9.32;;;2.70;90.10;;;;;;5056955;28;20033;-31
2022/01/14 00:33:19;;;;;;;13.48;7.93;;;2.80;90.10;;;;;;5057130;28;20116;-32
2022/01/14 00:35:45;;;;;;;18.77;9.38;;;2.80;90.10;;;;;;5056625;28;20069;-39
2022/01/14 00:38:13;;;;;;;14.85;8.35;;;2.80;90.00;;;;;;5056699;28;20380;-32
2022/01/14 00:40:39;;;;;;;14.38;8.80;;;2.80;90.30;;;;;;5056479;28;20033;-39
2022/01/14 00:43:05;;;;;;;14.02;7.57;;;2.90;90.10;;;;;;5056687;28;20473;-39
2022/01/14 00:45:30;;;;;;;19.10;8.90;;;2.90;90.20;;;;;;5056278;28;20079;-37
2022/01/14 00:47:58;;;;;;;14.43;8.35;;;2.90;90.40;;;;;;5056843;28;20116;-39
2022/01/14 00:50:24;;;;;;;15.18;8.52;;;2.90;90.10;;;;;;5055866;28;20067;-31
2022/01/14 00:52:50;;;;;;;13.20;8.20;;;2.90;90.10;;;;;;5056722;28;20063;-32
2022/01/14 00:55:25;;;;;;;12.45;7.38;;;2.90;90.10;;;;;;5056484;28;20408;-32
2022/01/14 01:00:31;;;;;;;13.23;7.22;;;2.90;90.10;;;;;;5056611;28;20406;-32
2022/01/14 01:02:57;;;;;;;12.20;7.55;;;3.00;90.20;;;;;;5056570;28;20037;-38
2022/01/14 01:05:23;;;;;;;12.68;7.70;;;3.00;90.30;;;;;;5056451;28;20037;-32
2022/01/14 01:07:58;;;;;;;12.90;7.93;;;3.00;90.30;;;;;;5056250;28;20055;-39
2022/01/14 01:10:24;;;;;;;11.98;6.85;;;3.00;90.30;;;;;;5056339;28;20041;-39
2022/01/14 01:12:52;;;;;;;12.35;6.95;;;3.00;90.30;;;;;;5056471;28;20048;-32
2022/01/14 01:15:18;;;;;;;13.20;7.07;;;3.00;90.30;;;;;;5056333;28;20428;-38
2022/01/14 01:17:44;;;;;;;10.70;6.75;;;3.00;90.30;;;;;;5056376;28;20036;-38
2022/01/14 01:20:21;;;;;;;10.98;7.00;;;3.00;90.30;;;;;;5056190;28;20341;-31
2022/01/14 01:22:49;;;;;;;11.13;7.57;;;3.00;90.30;;;;;;5055942;28;20459;-38
2022/01/14 01:25:20;;;;;;;10.65;6.60;;;3.10;90.40;;;;;;5056121;28;20021;-31
2022/01/14 01:27:47;;;;;;;9.50;6.45;;;3.10;90.40;;;;;;5056345;28;20112;-38
2022/01/14 01:30:48;;;;;;;9.50;6.28;;;3.10;90.30;;;;;;5056004;28;20329;-32
2022/01/14 01:33:02;;;;;;;10.02;6.32;;;3.10;90.30;;;;;;5055831;28;20040;-31
2022/01/14 01:35:28;;;;;;;10.73;6.82;;;3.10;90.30;;;;;;5055961;28;20025;-32
2022/01/14 01:37:54;;;;;;;8.85;6.10;;;3.10;90.30;;;;;;5056039;28;20044;-31
2022/01/14 01:40:25;;;;;;;10.07;6.85;;;3.10;90.20;;;;;;5055881;28;20409;-31
2022/01/14 01:42:51;;;;;;;9.73;6.70;;;3.20;90.20;;;;;;5055737;28;20025;-39
2022/01/14 01:45:24;;;;;;;9.90;6.18;;;3.20;90.20;;;;;;5055887;28;20021;-39
2022/01/14 01:47:51;;;;;;;11.65;6.80;;;3.20;90.20;;;;;;5056039;28;20033;-31
2022/01/14 01:50:21;;;;;;;10.90;6.55;;;3.20;90.20;;;;;;5055087;28;20135;-39
2022/01/14 01:52:47;;;;;;;9.52;6.15;;;3.20;90.20;;;;;;5055595;28;20075;-39
2022/01/14 01:55:14;;;;;;;10.90;6.60;;;3.20;90.20;;;;;;5055893;28;20037;-36
2022/01/14 01:57:42;;;;;;;9.50;6.20;;;3.20;90.20;;;;;;5058245;28;20029;-38
2022/01/14 02:00:11;;;;;;;8.95;6.15;;;3.20;90.20;;;;;;5059368;28;20037;-32
2022/01/14 02:02:37;;;;;;;9.40;5.90;;;3.20;90.20;;;;;;5059687;28;20025;-39
2022/01/14 02:05:04;;;;;;;8.90;6.35;;;3.20;90.20;;;;;;5059678;28;20163;-32
2022/01/14 02:07:33;;;;;;;15.00;5.82;;;3.20;90.20;;;;;;5059837;28;20075;-39
2022/01/14 02:09:59;;;;;;;7.75;5.63;;;3.20;90.20;;;;;;5059267;28;20029;-39
2022/01/14 02:12:34;;;;;;;8.98;5.60;;;3.20;90.20;;;;;;5059360;28;20041;-38
2022/01/14 02:15:25;;;;;;;8.02;5.60;;;3.20;90.20;;;;;;5059748;28;20312;-32
2022/01/14 02:23:10;;;;;;;7.47;5.30;;;3.30;90.10;;;;;;5059506;28;20147;-31
2022/01/14 02:25:36;;;;;;;7.53;5.40;;;3.30;90.00;;;;;;5058989;28;20108;-31
2022/01/14 02:28:10;;;;;;;8.40;5.45;;;3.30;90.10;;;;;;5059559;28;20025;-31
2022/01/14 02:30:41;;;;;;;8.68;5.95;;;3.30;90.00;;;;;;5058783;28;20036;-39
2022/01/14 02:33:08;;;;;;;;;;;3.30;90.00;;;;;;5059827;28;20021;-38
2022/01/14 02:35:34;;;;;;;7.45;4.90;;;3.30;89.60;;;;;;5058892;28;19912;-32
2022/01/14 02:37:59;;;;;;;9.93;5.57;;;3.30;89.90;;;;;;5058899;28;20036;-31
2022/01/14 02:40:25;;;;;;;8.23;5.68;;;3.30;90.00;;;;;;5058981;28;20029;-39
2022/01/14 02:42:51;;;;;;;7.65;5.10;;;3.30;90.00;;;;;;5058950;28;20060;-31
2022/01/14 02:45:18;;;;;;;8.13;5.30;;;3.30;90.00;;;;;;5059056;28;20118;-32
2022/01/14 02:47:45;;;;;;;8.45;5.10;;;3.30;90.00;;;;;;5058819;28;20059;-38
2022/01/14 02:50:16;;;;;;;9.13;5.40;;;3.30;90.00;;;;;;5057507;28;20049;-38
2022/01/14 02:55:22;;;;;;;9.15;5.53;;;3.30;89.70;;;;;;5057780;28;20055;-33
2022/01/14 02:57:53;;;;;;;8.27;4.70;;;3.40;89.70;;;;;;5057838;28;20033;-39
2022/01/14 03:00:28;;;;;;;6.85;4.53;;;3.40;89.60;;;;;;5057661;28;20116;-31
2022/01/14 03:02:54;;;;;;;5.97;4.40;;;3.40;89.40;;;;;;5057397;28;20540;-32
2022/01/14 03:05:21;;;;;;;8.05;6.30;;;3.40;89.50;;;;;;5057611;28;20366;-33
2022/01/14 03:07:48;;;;;;;7.57;4.35;;;3.40;89.40;;;;;;5056901;28;20048;-38
2022/01/14 03:10:16;;;;;;;7.03;4.85;;;3.40;89.40;;;;;;5057504;28;20077;-32
2022/01/14 03:12:42;;;;;;;7.43;4.70;;;3.50;89.40;;;;;;5057565;28;20025;-39
2022/01/14 03:15:10;;;;;;;6.30;3.92;;;3.50;89.20;;;;;;5057246;28;20121;-39
2022/01/14 03:17:36;;;;;;;7.32;4.93;;;3.50;89.00;;;;;;5057093;28;20032;-39
2022/01/14 03:20:04;;;;;;;6.18;4.00;;;3.50;89.00;;;;;;5057178;28;20031;-32
2022/01/14 03:22:42;;;;;;;8.43;4.03;;;3.50;89.00;;;;;;5057171;28;20322;-39
2022/01/14 03:27:57;;;;;;;5.70;4.10;;;3.50;88.90;;;;;;5059629;28;20037;-32
2022/01/14 03:30:22;;;;;;;7.22;4.53;;;3.50;88.80;;;;;;5057041;28;20102;-32
2022/01/14 03:32:48;;;;;;;6.45;4.18;;;3.50;88.70;;;;;;5056870;28;20025;-38
2022/01/14 03:35:14;;;;;;;6.32;3.63;;;3.50;88.70;;;;;;5056559;28;20040;-38
2022/01/14 03:37:40;;;;;;;7.50;4.53;;;3.50;88.70;;;;;;5056760;28;20110;-31
2022/01/14 03:40:07;;;;;;;6.10;4.03;;;3.50;88.70;;;;;;5056416;28;20090;-32
2022/01/14 03:42:33;;;;;;;5.75;3.83;;;3.60;88.60;;;;;;5057072;28;20040;-39
2022/01/14 03:44:59;;;;;;;7.93;4.35;;;3.60;88.60;;;;;;5056915;28;20425;-32
2022/01/14 03:47:25;;;;;;;9.07;4.45;;;3.60;88.50;;;;;;5056643;28;20039;-39
2022/01/14 03:49:51;;;;;;;6.47;4.07;;;3.60;88.50;;;;;;5015342;28;1194316;-31
2022/01/14 03:52:17;;;;;;;5.55;3.60;;;3.60;88.50;;;;;;5057529;28;20150;-32
2022/01/14 03:54:43;;;;;;;6.05;4.03;;;3.70;88.40;;;;;;5057690;28;20142;-31
2022/01/14 03:57:09;;;;;;;6.03;4.18;;;3.70;88.40;;;;;;5057582;28;20029;-32
2022/01/14 03:59:35;;;;;;;6.45;3.92;;;3.60;88.40;;;;;;5057213;28;20040;-39
2022/01/14 04:02:00;;;;;;;6.80;3.92;;;3.60;88.30;;;;;;5057498;28;20037;-39
2022/01/14 04:04:26;;;;;;;6.15;4.00;;;3.70;88.40;;;;;;5057344;28;20024;-31
2022/01/14 04:06:52;;;;;;;5.07;3.40;;;3.70;88.10;;;;;;5057322;28;20051;-39
2022/01/14 04:09:17;;;;;;;7.25;3.65;;;3.70;88.10;;;;;;5057425;28;20110;-32
2022/01/14 04:11:44;;;;;;;4.70;3.20;;;3.70;88.00;;;;;;5057068;28;20036;-38
2022/01/14 04:16:51;;;;;;;;;;;3.70;88.10;;;;;;5058064;28;20110;-39
2022/01/14 04:19:17;;;;;;;6.43;3.63;;;3.70;87.80;;;;;;5056332;28;19960;-39
2022/01/14 04:21:43;;;;;;;15.80;3.85;;;3.70;88.00;;;;;;5057023;28;20036;-32
2022/01/14 04:24:08;;;;;;;7.28;4.32;;;3.70;88.10;;;;;;5057087;28;20028;-38
2022/01/14 04:26:34;;;;;;;8.50;3.80;;;3.70;88.10;;;;;;5057155;28;20112;-38
2022/01/14 04:29:00;;;;;;;8.25;3.60;;;3.70;88.00;;;;;;5057187;28;20108;-32
2022/01/14 04:31:25;;;;;;;6.32;3.40;;;3.70;88.00;;;;;;5056721;28;20383;-39
2022/01/14 04:33:51;;;;;;;7.95;3.55;;;3.80;87.90;;;;;;5056917;28;20037;-32
2022/01/14 04:36:16;;;;;;;7.05;4.15;;;3.80;87.90;;;;;;5056523;28;20073;-32
2022/01/14 04:38:42;;;;;;;8.90;3.90;;;3.80;88.00;;;;;;5056946;28;20059;-38
2022/01/14 04:41:09;;;;;;;7.70;3.60;;;3.80;87.90;;;;;;5056760;28;20277;-38
2022/01/14 04:43:35;;;;;;;13.30;6.68;;;3.80;87.80;;;;;;5056741;28;20021;-40
2022/01/14 04:48:29;;;;;;;7.72;3.85;;;3.80;87.70;;;;;;5056498;28;20285;-39
2022/01/14 04:50:55;;;;;;;14.32;4.57;;;3.90;88.20;;;;;;5056435;28;20029;-38
2022/01/14 04:53:21;;;;;;;8.52;4.30;;;3.80;87.50;;;;;;5056704;28;20021;-32
2022/01/14 04:55:48;;;;;;;11.45;3.80;;;3.90;87.70;;;;;;5056095;28;20029;-32
2022/01/14 04:58:13;;;;;;;8.13;4.05;;;3.90;87.60;;;;;;5056662;28;20029;-40
2022/01/14 05:00:40;;;;;;;7.22;4.28;;;3.90;87.60;;;;;;5056047;28;20427;-39
2022/01/14 05:03:06;;;;;;;6.00;4.07;;;3.90;87.60;;;;;;5056215;28;20033;-39
2022/01/14 05:05:35;;;;;;;7.38;4.30;;;3.90;87.70;;;;;;5056338;28;20029;-32
2022/01/14 05:08:01;;;;;;;11.75;4.88;;;3.90;87.70;;;;;;5056519;28;20033;-32
2022/01/14 05:12:53;;;;;;;11.05;4.38;;;3.90;87.80;;;;;;5056401;28;20037;-32
2022/01/14 05:15:19;;;;;;;8.10;4.50;;;3.90;88.40;;;;;;5056325;28;20094;-39
2022/01/14 05:17:46;;;;;;;16.13;5.22;;;3.90;88.00;;;;;;5055819;28;20029;-32
2022/01/14 05:20:13;;;;;;;7.78;4.25;;;3.90;88.20;;;;;;5056028;28;20040;-32
2022/01/14 05:22:39;;;;;;;9.75;4.65;;;3.80;88.40;;;;;;5056051;28;20021;-39
2022/01/14 05:25:06;;;;;;;8.63;4.70;;;3.80;88.60;;;;;;5055916;28;20360;-32
2022/01/14 05:27:33;;;;;;;10.45;4.72;;;3.90;88.80;;;;;;5055696;28;20033;-32
2022/01/14 05:29:58;;;;;;;7.88;3.95;;;3.90;88.90;;;;;;5055594;28;20037;-39
2022/01/14 05:32:26;;;;;;;6.32;3.97;;;3.90;89.10;;;;;;5055388;28;20337;-33
2022/01/14 05:34:51;;;;;;;10.38;4.97;;;3.80;89.10;;;;;;5055784;28;20471;-32
2022/01/14 05:37:17;;;;;;;17.98;5.07;;;3.80;89.20;;;;;;5055960;28;20131;-39
2022/01/14 05:39:43;;;;;;;9.82;5.65;;;3.80;89.30;;;;;;5055639;28;20040;-39
2022/01/14 05:42:10;;;;;;;9.27;4.90;;;3.80;89.30;;;;;;5055866;28;20033;-31
2022/01/14 05:44:36;;;;;;;8.90;4.50;;;3.90;89.40;;;;;;5055489;28;20448;-32
2022/01/14 05:47:03;;;;;;;11.13;4.85;;;3.90;89.40;;;;;;5055591;28;20033;-39
2022/01/14 05:49:28;;;;;;;12.18;5.50;;;3.90;89.70;;;;;;5055182;28;20057;-32
2022/01/14 05:51:54;;;;;;;10.95;4.82;;;3.90;89.70;;;;;;5055619;28;20083;-33
2022/01/14 05:54:21;;;;;;;8.90;4.43;;;3.90;89.70;;;;;;5055674;28;20043;-38
2022/01/14 05:56:47;;;;;;;7.90;4.25;;;3.90;89.80;;;;;;5055538;28;20091;-33
2022/01/14 05:59:13;;;;;;;11.85;5.28;;;3.90;89.80;;;;;;5055394;28;20045;-32
2022/01/14 06:01:40;;;;;;;9.82;4.90;;;3.90;89.90;;;;;;5055139;28;20083;-32
2022/01/14 06:04:06;;;;;;;9.10;4.15;;;3.90;90.00;;;;;;5055010;28;20112;-32
2022/01/14 06:06:33;;;;;;;12.32;5.18;;;3.90;89.90;;;;;;5055300;28;20112;-32
2022/01/14 06:08:59;;;;;;;9.57;4.95;;;3.90;89.80;;;;;;5055576;28;20166;-32
2022/01/14 06:11:25;;;;;;;11.82;4.75;;;3.90;89.90;;;;;;5054991;28;20421;-32
2022/01/14 06:13:51;;;;;;;9.75;4.05;;;3.90;89.90;;;;;;5055227;28;20160;-37
2022/01/14 06:16:17;;;;;;;9.25;4.15;;;3.90;89.80;;;;;;5055088;28;20036;-39
2022/01/14 06:18:43;;;;;;;12.38;4.70;;;3.90;89.80;;;;;;5055463;28;20619;-33
2022/01/14 06:21:10;;;;;;;14.25;4.78;;;3.90;89.70;;;;;;5054888;28;20029;-38
2022/01/14 06:23:35;;;;;;;9.23;4.40;;;4.00;89.70;;;;;;5055155;28;20108;-32
2022/01/14 06:26:02;;;;;;;10.15;4.80;;;4.00;89.70;;;;;;5055116;28;20121;-39
2022/01/14 06:28:27;;;;;;;7.97;3.85;;;4.00;89.70;;;;;;5055118;28;20146;-38
2022/01/14 06:30:53;;;;;;;7.93;3.97;;;4.00;89.60;;;;;;5054187;28;20116;-33
2022/01/14 06:33:19;;;;;;;10.45;4.45;;;4.00;89.40;;;;;;5053415;28;20036;-39
2022/01/14 06:35:45;;;;;;;9.00;3.78;;;4.00;89.30;;;;;;5054595;28;20033;-32
2022/01/14 06:38:11;;;;;;;5.53;3.72;;;4.00;89.40;;;;;;5055009;28;20074;-45
2022/01/14 06:40:37;;;;;;;5.70;3.88;;;4.00;89.30;;;;;;5054903;28;20112;-32
2022/01/14 06:43:04;;;;;;;12.30;5.22;;;4.10;89.30;;;;;;5054023;28;20044;-39
2022/01/14 06:45:30;;;;;;;23.67;6.30;;;4.10;89.20;;;;;;5040541;28;20026;-32
2022/01/14 06:47:56;;;;;;;11.43;3.92;;;4.10;89.20;;;;;;5039791;28;20071;-32
2022/01/14 06:50:22;;;;;;;8.05;4.28;;;4.10;89.10;;;;;;5049127;28;20499;-32
2022/01/14 06:52:48;;;;;;;8.35;4.15;;;4.10;89.00;;;;;;5038402;28;20422;-39
2022/01/14 06:55:14;;;;;;;7.53;3.80;;;4.20;88.90;;;;;;5038483;28;20045;-38
2022/01/14 06:57:40;;;;;;;10.10;4.65;;;4.20;88.70;;;;;;5038683;28;20072;-39
2022/01/14 07:00:14;;;;;;;10.88;4.30;;;4.20;88.50;;;;;;5038588;28;20040;-32
2022/01/14 07:02:40;;;;;;;14.40;4.55;;;4.30;88.50;;;;;;5038368;28;20029;-32
2022/01/14 07:05:07;;;;;;;7.10;4.13;;;4.30;88.30;;;;;;5038305;28;20037;-39
2022/01/14 07:07:33;;;;;;;7.10;3.90;;;4.30;88.30;;;;;;5038070;28;20065;-32
2022/01/14 07:10:00;;;;;;;8.43;3.95;;;4.30;87.90;;;;;;5038355;28;20065;-39
2022/01/14 07:12:30;;;;;;;6.18;3.67;;;4.30;87.60;;;;;;5038390;28;20381;-32
2022/01/14 07:14:57;;;;;;;6.68;3.60;;;4.30;87.50;;;;;;5038352;28;20030;-39
2022/01/14 07:17:23;;;;;;;6.68;3.60;;;4.30;87.30;;;;;;5046092;28;20099;-39
2022/01/14 07:19:51;;;;;;;8.00;3.75;;;4.30;87.30;;;;;;5057730;28;20032;-39
2022/01/14 07:22:18;;;;;;;7.28;4.05;;;4.40;87.20;;;;;;5058059;28;20037;-38
2022/01/14 07:24:43;;;;;;;7.97;3.85;;;4.40;87.00;;;;;;5057908;28;20564;-39
2022/01/14 07:27:09;;;;;;;5.85;3.63;;;4.40;86.90;;;;;;5057579;28;20116;-39
2022/01/14 07:29:35;;;;;;;7.85;4.15;;;4.40;86.80;;;;;;5058033;28;20115;-39
2022/01/14 07:32:00;;;;;;;7.95;4.18;;;4.40;86.80;;;;;;5057405;28;20040;-38
2022/01/14 07:34:26;;;;;;;7.40;4.00;;;4.40;86.80;;;;;;5057953;28;20025;-32
2022/01/14 07:36:52;;;;;;;8.68;4.40;;;4.40;86.70;;;;;;5057525;28;20029;-39
2022/01/14 07:39:19;;;;;;;9.10;4.70;;;4.40;86.60;;;;;;5057259;28;20359;-37
2022/01/14 07:41:46;;;;;;;5.82;3.90;;;4.50;86.60;;;;;;5057447;28;20156;-39
2022/01/14 07:44:12;;;;;;;12.68;5.25;;;4.50;86.50;;;;;;5057601;28;20032;-39
2022/01/14 07:46:38;;;;;;;7.00;4.20;;;4.50;86.40;;;;;;5057535;28;20299;-38
2022/01/14 07:49:03;;;;;;;16.33;5.38;;;4.50;86.40;;;;;;5057560;28;20048;-39
2022/01/14 07:51:30;;;;;;;8.95;5.22;;;4.50;86.40;;;;;;5057072;28;20039;-38
2022/01/14 07:53:56;;;;;;;11.50;5.28;;;4.50;86.10;;;;;;5056480;28;20033;-39
2022/01/14 07:56:22;;;;;;;9.15;5.22;;;4.50;86.10;;;;;;5056944;28;20037;-32
2022/01/14 07:58:49;;;;;;;7.90;4.93;;;4.50;86.10;;;;;;5057323;28;20116;-32
2022/01/14 08:01:15;;;;;;;10.45;5.28;;;4.50;86.00;;;;;;5056630;28;20108;-39
2022/01/14 08:03:41;;;;;;;12.23;6.88;;;4.50;86.00;;;;;;5057723;28;20044;-32
2022/01/14 08:06:09;;;;;;;9.73;5.43;;;4.50;86.00;;;;;;5056343;28;20025;-39
2022/01/14 08:08:35;;;;;;;10.07;6.45;;;4.50;86.10;;;;;;5057448;28;20083;-32
2022/01/14 08:11:01;;;;;;;12.25;6.22;;;4.50;86.00;;;;;;5056652;28;20029;-32
2022/01/14 08:13:26;;;;;;;13.40;5.93;;;4.50;85.90;;;;;;5056914;28;20037;-40
2022/01/14 08:15:52;;;;;;;10.15;5.80;;;4.50;85.90;;;;;;5056349;28;20025;-32
2022/01/14 08:18:18;;;;;;;11.35;6.28;;;4.50;85.90;;;;;;5056809;28;20025;-39
2022/01/14 08:20:43;;;;;;;11.15;6.35;;;4.50;85.70;;;;;;5056395;28;20033;-40
2022/01/14 08:23:09;;;;;;;12.13;7.20;;;4.50;85.60;;;;;;5056929;28;20028;-32
2022/01/14 08:25:35;;;;;;;10.68;6.68;;;4.50;86.00;;;;;;5056675;28;20312;-32
2022/01/14 08:28:01;;;;;;;11.88;6.80;;;4.50;85.50;;;;;;5056679;28;20036;-33
2022/01/14 08:30:26;;;;;;;10.18;6.15;;;4.50;85.40;;;;;;5057151;28;20028;-32
2022/01/14 08:32:52;;;;;;;13.00;7.65;;;4.50;85.30;;;;;;5056504;28;20086;-40
2022/01/14 08:35:18;;;;;;;12.45;6.38;;;4.50;85.30;;;;;;5056772;28;20021;-39
2022/01/14 08:37:43;;;;;;;12.40;7.30;;;4.50;85.30;;;;;;5056723;28;20376;-39
2022/01/14 08:40:10;;;;;;;13.65;7.57;;;4.60;85.30;;;;;;5056429;28;20031;-39
2022/01/14 08:42:37;;;;;;;14.10;7.30;;;4.50;85.10;;;;;;5056645;28;20376;-39
2022/01/14 08:45:04;;;;;;;11.60;7.10;;;4.60;85.00;;;;;;5056509;28;20100;-32
2022/01/14 08:47:30;;;;;;;20.88;8.20;;;4.50;84.90;;;;;;5055969;28;20138;-39
2022/01/14 08:49:56;;;;;;;17.33;7.95;;;4.60;84.90;;;;;;5055458;28;20077;-39
2022/01/14 08:52:22;;;;;;;11.77;7.38;;;4.60;84.80;;;;;;5055987;28;20029;-39
2022/01/14 08:54:47;;;;;;;14.20;7.63;;;4.70;84.60;;;;;;5056299;28;20090;-32
2022/01/14 08:57:13;;;;;;;15.02;8.32;;;4.70;84.50;;;;;;5056041;28;20033;-39
2022/01/14 08:59:40;;;;;;;15.85;7.90;;;4.70;84.40;;;;;;5056318;28;20112;-39
2022/01/14 09:02:06;;;;;;;14.90;7.85;;;4.70;84.30;;;;;;5056199;28;20414;-32
2022/01/14 09:04:33;;;;;;;12.57;7.28;;;4.70;84.10;;;;;;5056080;28;20036;-39
2022/01/14 09:07:00;;;;;;;16.15;8.30;;;4.70;83.90;;;;;;5055646;28;20029;-39
2022/01/14 09:09:25;;;;;;;18.77;8.48;;;4.70;83.80;;;;;;5056064;28;20041;-39
2022/01/14 09:11:51;;;;;;;16.80;8.65;;;4.70;83.70;;;;;;5056003;28;20033;-39
2022/01/14 09:14:18;;;;;;;17.55;8.93;;;4.70;83.80;;;;;;5055845;28;20299;-39
2022/01/14 09:16:44;;;;;;;17.60;8.18;;;4.70;83.70;;;;;;5054665;28;20447;-39
2022/01/14 09:19:10;;;;;;;17.38;8.43;;;4.70;83.50;;;;;;5054631;28;20094;-39
2022/01/14 09:21:35;;;;;;;13.90;7.38;;;4.70;83.30;;;;;;5054985;28;20025;-32
2022/01/14 09:24:04;;;;;;;14.02;8.43;;;4.70;83.30;;;;;;5055208;28;20021;-32
2022/01/14 09:26:35;;;;;;;18.08;8.73;;;4.70;83.30;;;;;;5055434;28;20414;-32
2022/01/14 09:29:02;;;;;;;15.65;8.40;;;4.70;83.30;;;;;;5056137;28;20083;-39
2022/01/14 09:31:28;;;;;;;16.90;8.30;;;4.70;83.10;;;;;;5055149;28;20095;-40
2022/01/14 09:33:54;;;;;;;14.00;7.75;;;4.70;82.90;;;;;;5056153;28;20033;-39
2022/01/14 09:36:20;;;;;;;18.35;7.88;;;4.70;82.90;;;;;;5055693;28;20029;-33
2022/01/14 09:38:47;;;;;;;14.15;8.25;;;4.70;82.90;;;;;;5055769;28;20469;-39
2022/01/14 09:41:14;;;;;;;12.98;8.15;;;4.70;82.90;;;;;;5055552;28;20048;-39
2022/01/14 09:43:40;;;;;;;14.82;7.70;;;4.70;82.90;;;;;;5055955;28;20053;-40
2022/01/14 09:46:07;;;;;;;16.02;8.32;;;4.80;82.90;;;;;;5055531;28;20024;-32
2022/01/14 09:48:33;;;;;;;12.98;7.57;;;4.70;82.70;;;;;;5055491;28;20103;-32
2022/01/14 09:51:00;;;;;;;15.60;7.82;;;4.80;82.70;;;;;;5055166;28;20025;-39
2022/01/14 09:53:28;;;;;;;16.25;8.13;;;4.80;82.60;;;;;;5055648;28;20355;-39
2022/01/14 09:55:53;;;;;;;15.13;8.48;;;4.80;82.60;;;;;;5055431;28;20029;-39
2022/01/14 09:58:22;;;;;;;15.57;8.23;;;4.80;82.50;;;;;;5055390;28;20028;-32
2022/01/14 10:00:48;;;;;;;14.95;8.50;;;4.80;82.30;;;;;;5055105;28;20310;-39
2022/01/14 10:03:23;;;;;;;10.65;7.13;;;4.80;82.30;;;;;;5055061;28;20025;-38
2022/01/14 10:05:52;;;;;;;14.30;8.10;;;4.80;82.10;;;;;;5055179;28;20036;-32
2022/01/14 10:08:25;;;;;;;16.80;8.02;;;4.80;81.90;;;;;;5055384;28;20029;-42
2022/01/14 10:11:01;;;;;;;16.70;11.30;;;4.80;81.80;;;;;;5054919;28;20164;-39
2022/01/14 10:13:29;;;;;;;10.95;6.88;;;4.80;81.70;;;;;;5055183;28;20029;-32
2022/01/14 10:16:10;;;;;;;16.55;7.88;;;4.80;81.50;;;;;;5054765;28;20029;-39
2022/01/14 10:18:38;;;;;;;16.17;8.88;;;4.80;81.40;;;;;;5058087;28;20052;-32
2022/01/14 10:21:06;;;;;;;12.30;7.35;;;4.80;81.40;;;;;;5059208;28;20378;-31
2022/01/14 10:23:42;;;;;;;13.98;7.68;;;4.80;81.40;;;;;;5059246;28;20058;-32
2022/01/14 10:26:08;;;;;;;13.35;7.43;;;4.90;81.40;;;;;;5059125;28;20029;-39
2022/01/14 10:28:33;;;;;;;17.58;8.02;;;4.90;81.40;;;;;;5059511;28;20352;-38
2022/01/14 10:31:01;;;;;;;11.15;6.80;;;4.90;81.30;;;;;;5059185;28;20317;-39
2022/01/14 10:33:28;;;;;;;10.25;6.45;;;4.90;81.10;;;;;;5058871;28;20033;-39
2022/01/14 10:35:54;;;;;;;11.82;6.93;;;4.90;81.00;;;;;;5058599;28;20029;-39
2022/01/14 10:38:22;;;;;;;13.23;6.03;;;4.90;81.00;;;;;;5059004;28;20108;-32
2022/01/14 10:40:57;;;;;;;13.75;7.15;;;4.90;80.60;;;;;;5058461;28;20048;-32
2022/01/14 10:43:31;;;;;;;12.43;6.30;;;5.00;80.50;;;;;;5056248;28;20095;-39
2022/01/14 10:45:58;;;;;;;13.77;7.55;;;4.90;80.50;;;;;;5058467;28;20099;-39
2022/01/14 10:48:32;;;;;;;12.27;7.13;;;5.00;80.40;;;;;;5058362;28;20049;-32
2022/01/14 10:50:59;;;;;;;10.02;6.10;;;5.00;80.40;;;;;;5058160;28;20433;-32
2022/01/14 10:53:32;;;;;;;13.13;7.22;;;5.00;80.20;;;;;;5058383;28;20121;-32
2022/01/14 10:56:05;;;;;;;16.00;5.90;;;5.00;80.20;;;;;;5058615;28;20045;-39
2022/01/14 10:58:36;;;;;;;11.85;5.93;;;5.00;80.60;;;;;;5058102;28;20367;-39
2022/01/14 11:01:08;;;;;;;9.20;5.88;;;5.00;80.10;;;;;;5058108;28;20039;-39
2022/01/14 11:03:35;;;;;;;11.48;6.40;;;5.00;80.00;;;;;;5058536;28;20029;-39
2022/01/14 11:06:16;;;;;;;9.77;6.63;;;5.10;80.00;;;;;;5058021;28;20025;-31
2022/01/14 11:08:42;;;;;;;7.78;5.15;;;5.10;79.80;;;;;;5058189;28;20033;-39
2022/01/14 11:11:08;;;;;;;10.60;5.88;;;5.10;79.80;;;;;;5058204;28;20029;-32
2022/01/14 11:13:34;;;;;;;11.38;5.88;;;5.10;79.70;;;;;;5058256;28;20432;-39
2022/01/14 11:15:59;;;;;;;9.48;5.78;;;5.10;79.70;;;;;;5057608;28;20421;-39
2022/01/14 11:18:25;;;;;;;14.40;7.22;;;5.10;79.60;;;;;;5056952;28;20035;-39
2022/01/14 11:23:36;;;;;;;9.77;5.43;;;5.10;79.50;;;;;;5058291;28;20036;-39
2022/01/14 11:26:06;;;;;;;12.50;6.40;;;5.10;79.50;;;;;;5057596;28;20028;-32
2022/01/14 11:28:40;;;;;;;11.93;5.60;;;5.10;79.50;;;;;;5057750;28;20029;-32
2022/01/14 11:31:31;;;;;;;9.57;4.97;;;5.10;79.50;;;;;;5057623;28;20084;-32
2022/01/14 11:33:59;;;;;;;8.80;5.25;;;5.10;79.50;;;;;;5057826;28;20032;-39
2022/01/14 11:36:44;;;;;;;9.32;5.60;;;5.10;79.70;;;;;;5057454;28;20033;-39
2022/01/14 11:39:36;;;;;;;11.40;5.70;;;5.10;79.70;;;;;;5056607;28;20068;-32
2022/01/14 11:42:14;;;;;;;8.52;5.40;;;5.10;79.70;;;;;;5058368;28;20405;-32
2022/01/14 11:44:43;;;;;;;8.48;5.30;;;5.10;79.80;;;;;;5057525;28;20133;-39
2022/01/14 11:47:24;;;;;;;10.32;5.38;;;5.10;79.90;;;;;;5057549;28;20376;-39
2022/01/14 11:49:58;;;;;;;9.45;5.18;;;5.10;79.90;;;;;;5057107;28;20049;-32
2022/01/14 11:52:33;;;;;;;9.35;5.28;;;5.10;80.00;;;;;;5057522;28;20040;-39
2022/01/14 11:54:59;;;;;;;9.75;5.82;;;5.10;79.90;;;;;;5056939;28;20033;-32
2022/01/14 11:57:45;;;;;;;9.73;5.72;;;5.10;79.80;;;;;;5056929;28;20099;-40
2022/01/14 12:03:07;;;;;;;10.13;5.18;;;5.20;79.70;;;;;;5056391;28;20325;-33
2022/01/14 12:05:36;;;;;;;8.07;4.75;;;5.20;79.70;;;;;;5057337;28;20374;-32
2022/01/14 12:08:01;;;;;;;8.88;5.05;;;5.20;79.60;;;;;;5056254;28;20479;-32
2022/01/14 12:10:32;;;;;;;13.18;5.28;;;5.20;79.50;;;;;;5057279;28;20032;-32
2022/01/14 12:13:18;;;;;;;7.07;4.50;;;5.30;79.40;;;;;;5056818;28;20025;-32
2022/01/14 12:15:57;;;;;;;6.38;4.00;;;5.30;79.10;;;;;;5056520;28;20037;-34
2022/01/14 12:18:44;;;;;;;9.82;5.03;;;5.40;79.00;;;;;;5056670;28;20025;-46
2022/01/14 12:21:10;;;;;;;10.77;4.30;;;5.40;78.80;;;;;;5056185;28;20449;-46
2022/01/14 12:23:35;;;;;;;9.65;4.90;;;5.50;78.70;;;;;;5056603;28;20033;-39
2022/01/14 12:26:27;;;;;;;9.75;4.38;;;5.50;78.30;;;;;;5056370;28;20029;-34
2022/01/14 12:29:13;;;;;;;6.63;3.90;;;5.50;78.10;;;;;;5056456;28;20041;-34
2022/01/14 12:32:06;;;;;;;8.15;3.72;;;5.50;77.70;;;;;;5056722;28;20032;-38
2022/01/14 12:34:53;;;;;;;8.05;4.00;;;5.60;77.50;;;;;;5056440;28;20041;-34
2022/01/14 12:37:52;;;;;;;5.43;3.47;;;5.60;77.30;;;;;;5056071;28;20033;-45
2022/01/14 12:40:27;;;;;;;6.93;3.38;;;5.60;77.10;;;;;;5055893;28;20037;-34
2022/01/14 12:43:03;;;;;;;13.25;4.07;;;5.70;77.00;;;;;;5056994;28;20433;-45
2022/01/14 12:45:34;;;;;;;8.77;4.10;;;5.70;76.90;;;;;;5056559;28;20033;-46
2022/01/14 12:48:20;;;;;;;6.75;3.38;;;5.70;77.00;;;;;;5056774;28;20025;-34
2022/01/14 12:50:47;;;;;;;6.82;3.95;;;5.70;76.70;;;;;;5056912;28;20140;-46
2022/01/14 12:53:19;;;;;;;6.72;3.47;;;5.70;76.90;;;;;;5056125;28;20382;-35
2022/01/14 12:55:46;;;;;;;6.80;3.88;;;5.70;76.70;;;;;;5056084;28;20037;-46
2022/01/14 12:58:11;;;;;;;4.50;3.33;;;5.70;76.70;;;;;;5056407;28;20037;-34
2022/01/14 13:00:39;;;;;;;4.60;3.30;;;5.70;76.60;;;;;;5055900;28;20337;-46
2022/01/14 13:03:12;;;;;;;5.50;3.58;;;5.70;76.60;;;;;;5056591;28;20376;-34
2022/01/14 13:05:38;;;;;;;6.88;3.50;;;5.70;76.60;;;;;;5056082;28;20044;-46
2022/01/14 13:08:04;;;;;;;6.43;3.50;;;5.80;76.60;;;;;;5055350;28;20394;-46
2022/01/14 13:10:30;;;;;;;6.18;3.80;;;5.70;76.50;;;;;;5055978;28;20025;-46
2022/01/14 13:12:56;;;;;;;4.68;2.83;;;5.80;76.60;;;;;;5056108;28;20037;-34
2022/01/14 13:15:26;;;;;;;7.25;3.10;;;5.80;76.50;;;;;;5056210;28;20420;-35
2022/01/14 13:18:04;;;;;;;5.07;2.17;;;5.80;76.40;;;;;;5056121;28;20037;-46
2022/01/14 13:20:31;;;;;;;4.93;3.08;;;5.80;76.40;;;;;;5056198;28;20041;-43
2022/01/14 13:22:58;;;;;;;5.30;3.33;;;5.80;76.30;;;;;;5055814;28;20500;-36
2022/01/14 13:25:26;;;;;;;4.32;2.50;;;5.80;76.40;;;;;;5056052;28;20040;-46
2022/01/14 13:27:58;;;;;;;3.97;2.63;;;5.80;76.40;;;;;;5056090;28;20044;-34
2022/01/14 13:30:44;;;;;;;9.60;2.78;;;5.70;76.40;;;;;;5055898;28;20082;-46
2022/01/14 13:33:13;;;;;;;5.13;2.92;;;5.70;76.40;;;;;;5055487;28;20178;-46